Rouvroy, Belgium
Current Conditions -  °F | °C
As of 11:20 PM on Sunday 23 Nov 2014 (Local Time) from ELLX Reporting Station
Clear Clear  
Wind Chill: 46°   Ceiling: Unl
Heat Index: 48°   Visibility: 6mi
Dew Point: 46°   Wind: 5mph
Humidity: 93%   Direction: 190°S
Pressure: 30.03"   Gusts: NA
Location:  49.54°N, 5.49°E
Report Text: ELLX 232220Z 19004KT 150V220 CAVOK 09/08 Q1017 NOSIG
Loading
Personal Weather Stations






























Interactive Weather Map New forecast layout! Learn more

10-Day Weather Forecast

Advertisements
Track Severe Weather on mobile